createdAt,value
2019-06-08T00:01:16.432Z,14.30
2019-06-08T00:03:45.018Z,14.30
2019-06-08T00:06:14.456Z,14.30
2019-06-08T00:08:42.996Z,14.20
2019-06-08T00:11:12.688Z,14.20
2019-06-08T00:13:41.381Z,14.10
2019-06-08T00:16:10.220Z,14.00
2019-06-08T00:18:38.680Z,14.00
2019-06-08T00:21:07.112Z,13.90
2019-06-08T00:23:35.579Z,14.00
2019-06-08T00:26:04.137Z,13.90
2019-06-08T00:28:32.624Z,13.80
2019-06-08T00:31:01.079Z,13.80
2019-06-08T00:33:29.540Z,13.90
2019-06-08T00:35:57.978Z,13.80
2019-06-08T00:38:26.448Z,14.00
2019-06-08T00:40:54.996Z,13.90
2019-06-08T00:43:23.756Z,13.90
2019-06-08T00:45:52.268Z,13.90
2019-06-08T00:48:21.154Z,13.80
2019-06-08T00:50:49.651Z,13.60
2019-06-08T00:53:19.731Z,13.50
2019-06-08T00:55:48.323Z,13.60
2019-06-08T00:58:18.046Z,13.60
2019-06-08T01:00:49.018Z,13.50
2019-06-08T01:03:17.590Z,13.40
2019-06-08T01:05:46.101Z,13.40
2019-06-08T01:08:14.606Z,13.40
2019-06-08T01:10:43.267Z,13.30
2019-06-08T01:13:11.770Z,13.50
2019-06-08T01:15:40.314Z,13.40
2019-06-08T01:18:08.818Z,13.30
2019-06-08T01:20:37.298Z,13.60
2019-06-08T01:23:05.821Z,13.60
2019-06-08T01:25:34.363Z,13.60
2019-06-08T01:28:02.869Z,13.60
2019-06-08T01:30:31.669Z,13.70
2019-06-08T01:33:00.186Z,13.70
2019-06-08T01:35:28.905Z,13.70
2019-06-08T01:37:58.167Z,13.50
2019-06-08T01:40:27.488Z,13.40
2019-06-08T01:42:56.034Z,13.40
2019-06-08T01:45:30.533Z,13.50
2019-06-08T01:48:00.487Z,13.60
2019-06-08T01:50:32.672Z,13.50
2019-06-08T01:53:01.925Z,13.50
2019-06-08T01:55:31.110Z,13.50
2019-06-08T01:57:59.889Z,13.50
2019-06-08T02:00:35.265Z,13.40
2019-06-08T02:03:00.197Z,13.40
2019-06-08T02:05:28.645Z,13.30
2019-06-08T02:07:57.173Z,13.30
2019-06-08T02:10:26.619Z,13.40
2019-06-08T02:12:55.223Z,13.50
2019-06-08T02:15:25.199Z,13.50
2019-06-08T02:17:53.818Z,13.50
2019-06-08T02:20:22.320Z,13.50
2019-06-08T02:22:50.776Z,13.50
2019-06-08T02:25:22.293Z,13.40
2019-06-08T02:27:50.762Z,13.50
2019-06-08T02:30:19.946Z,13.50
2019-06-08T02:32:48.401Z,13.50
2019-06-08T02:35:17.686Z,13.50
2019-06-08T02:37:46.212Z,13.50
2019-06-08T02:40:15.105Z,13.50
2019-06-08T02:42:43.694Z,13.50
2019-06-08T02:45:12.853Z,13.50
2019-06-08T02:47:41.324Z,13.50
2019-06-08T02:50:10.663Z,13.40
2019-06-08T02:52:40.871Z,13.40
2019-06-08T02:55:09.922Z,13.40
2019-06-08T02:57:39.869Z,13.40
2019-06-08T03:00:11.740Z,13.40
2019-06-08T03:02:41.796Z,13.40
2019-06-08T03:05:11.685Z,13.30
2019-06-08T03:07:42.521Z,13.30
2019-06-08T03:10:11.697Z,13.30
2019-06-08T03:12:42.370Z,13.30
2019-06-08T03:15:10.845Z,13.30
2019-06-08T03:17:40.110Z,13.30
2019-06-08T03:20:09.663Z,13.30
2019-06-08T03:22:40.842Z,13.30
2019-06-08T03:25:08.362Z,13.30
2019-06-08T03:27:38.744Z,13.30
2019-06-08T03:30:16.496Z,13.20
2019-06-08T03:32:45.926Z,13.20
2019-06-08T03:35:08.302Z,13.30
2019-06-08T03:37:37.833Z,13.20
2019-06-08T03:40:06.651Z,13.30
2019-06-08T03:42:35.161Z,13.20
2019-06-08T03:45:05.729Z,13.20
2019-06-08T03:47:34.548Z,13.20
2019-06-08T03:50:04.037Z,13.10
2019-06-08T03:52:32.474Z,13.10
2019-06-08T03:55:00.952Z,13.10
2019-06-08T03:57:29.457Z,13.10
2019-06-08T03:59:57.986Z,13.10
2019-06-08T04:02:26.429Z,13.10
2019-06-08T04:04:54.967Z,13.00
2019-06-08T04:07:23.468Z,13.00
2019-06-08T04:09:51.933Z,13.00
2019-06-08T04:12:20.374Z,12.90
2019-06-08T04:14:50.414Z,13.00
2019-06-08T04:17:19.046Z,13.00
2019-06-08T04:20:08.380Z,12.90
2019-06-08T04:22:17.652Z,12.90
2019-06-08T04:24:46.639Z,12.90
2019-06-08T04:27:15.304Z,12.90
2019-06-08T04:29:44.067Z,13.00
2019-06-08T04:32:13.980Z,13.00
2019-06-08T04:34:42.904Z,12.90
2019-06-08T04:37:15.767Z,12.90
2019-06-08T04:39:42.068Z,12.90
2019-06-08T04:42:10.537Z,12.80
2019-06-08T04:44:40.506Z,12.80
2019-06-08T04:47:09.221Z,12.80
2019-06-08T04:49:38.475Z,12.70
2019-06-08T04:52:07.560Z,12.70
2019-06-08T04:54:36.018Z,12.80
2019-06-08T04:57:04.462Z,12.70
2019-06-08T04:59:33.003Z,12.70
2019-06-08T05:02:01.577Z,12.70
2019-06-08T05:04:30.009Z,12.70
2019-06-08T05:06:58.465Z,12.70
2019-06-08T05:09:26.903Z,12.70
2019-06-08T05:11:55.570Z,12.70
2019-06-08T05:14:24.078Z,12.60
2019-06-08T05:16:52.536Z,12.70
2019-06-08T05:19:20.986Z,12.60
2019-06-08T05:21:49.946Z,12.60
2019-06-08T05:24:18.656Z,12.60
2019-06-08T05:26:47.403Z,12.70
2019-06-08T05:29:16.031Z,12.60
2019-06-08T05:31:45.523Z,12.60
2019-06-08T05:34:14.120Z,12.70
2019-06-08T05:36:43.371Z,12.70
2019-06-08T05:39:11.993Z,12.60
2019-06-08T05:41:41.399Z,12.60
2019-06-08T05:44:09.885Z,12.60
2019-06-08T05:46:39.556Z,12.60
2019-06-08T05:49:08.617Z,12.60
2019-06-08T05:51:37.092Z,12.70
2019-06-08T05:54:05.598Z,12.70
2019-06-08T05:56:34.054Z,12.70
2019-06-08T05:59:02.501Z,12.60
2019-06-08T06:01:30.976Z,12.60
2019-06-08T06:03:59.421Z,12.60
2019-06-08T06:06:27.891Z,12.60
2019-06-08T06:08:56.339Z,12.60
2019-06-08T06:11:24.894Z,12.60
2019-06-08T06:13:53.343Z,12.60
2019-06-08T06:16:21.799Z,12.60
2019-06-08T06:18:52.156Z,12.40
2019-06-08T06:21:20.502Z,12.20
2019-06-08T06:23:49.335Z,11.90
2019-06-08T06:26:17.916Z,11.70
2019-06-08T06:28:47.601Z,11.30
2019-06-08T06:31:16.236Z,11.00
2019-06-08T06:33:45.973Z,11.00
2019-06-08T06:36:14.713Z,11.00
2019-06-08T06:38:43.826Z,11.30
2019-06-08T06:41:12.412Z,11.60
2019-06-08T06:43:42.233Z,12.30
2019-06-08T06:46:10.931Z,12.70
2019-06-08T06:48:39.379Z,12.80
2019-06-08T06:51:07.814Z,12.90
2019-06-08T06:53:36.263Z,13.00
2019-06-08T06:56:05.069Z,13.20
2019-06-08T06:58:33.504Z,13.40
2019-06-08T07:01:02.004Z,13.30
2019-06-08T07:03:30.489Z,13.40
2019-06-08T07:05:58.953Z,13.50
2019-06-08T07:08:27.475Z,13.70
2019-06-08T07:10:56.153Z,13.80
2019-06-08T07:13:25.002Z,14.00
2019-06-08T07:15:57.576Z,13.90
2019-06-08T07:18:23.705Z,14.10
2019-06-08T07:20:52.354Z,13.70
2019-06-08T07:23:20.880Z,13.80
2019-06-08T07:25:50.458Z,13.90
2019-06-08T07:28:19.011Z,14.00
2019-06-08T07:30:48.774Z,14.10
2019-06-08T07:33:17.473Z,14.40
2019-06-08T07:35:46.836Z,14.20
2019-06-08T07:38:16.277Z,13.90
2019-06-08T07:40:44.772Z,13.60
2019-06-08T07:43:13.308Z,13.60
2019-06-08T07:45:42.654Z,13.70
2019-06-08T07:48:11.510Z,13.70
2019-06-08T07:50:40.127Z,13.70
2019-06-08T07:53:08.668Z,13.60
2019-06-08T07:55:37.188Z,14.20
2019-06-08T07:58:06.019Z,14.30
2019-06-08T08:00:34.538Z,14.50
2019-06-08T08:03:02.994Z,14.60
2019-06-08T08:05:31.544Z,15.00
2019-06-08T08:08:00.158Z,15.20
2019-06-08T08:10:28.603Z,15.10
2019-06-08T08:12:57.060Z,15.10
2019-06-08T08:15:25.574Z,15.20
2019-06-08T08:17:55.433Z,15.30
2019-06-08T08:20:24.100Z,15.30
2019-06-08T08:22:57.473Z,15.40
2019-06-08T08:25:22.886Z,15.60
2019-06-08T08:27:51.971Z,15.60
2019-06-08T08:30:21.327Z,15.70
2019-06-08T08:32:51.444Z,15.90
2019-06-08T08:35:20.265Z,16.70
2019-06-08T08:37:53.632Z,16.80
2019-06-08T08:40:19.031Z,16.00
2019-06-08T08:42:48.330Z,15.10
2019-06-08T08:45:18.974Z,15.10
2019-06-08T08:47:48.467Z,15.10
2019-06-08T08:50:18.392Z,14.90
2019-06-08T08:52:47.718Z,14.90
2019-06-08T08:55:20.191Z,14.80
2019-06-08T08:57:48.367Z,15.00
2019-06-08T09:00:18.211Z,14.80
2019-06-08T09:02:48.914Z,15.10
2019-06-08T09:05:18.126Z,15.40
2019-06-08T09:07:48.244Z,15.70
2019-06-08T09:10:18.315Z,16.00
2019-06-08T09:12:48.600Z,16.30
2019-06-08T09:15:19.225Z,15.70
2019-06-08T09:17:48.351Z,15.70
2019-06-08T09:20:19.305Z,15.80
2019-06-08T09:22:56.760Z,15.50
2019-06-08T09:25:18.158Z,15.70
2019-06-08T09:27:48.283Z,15.70
2019-06-08T09:30:18.305Z,15.30
2019-06-08T09:32:47.819Z,15.60
2019-06-08T09:35:18.825Z,15.60
2019-06-08T09:37:48.581Z,16.20
2019-06-08T09:40:17.212Z,15.80
2019-06-08T09:42:45.729Z,16.20
2019-06-08T09:45:14.687Z,16.50
2019-06-08T09:47:43.217Z,16.20
2019-06-08T09:50:12.309Z,16.10
2019-06-08T09:52:41.485Z,16.50
2019-06-08T09:55:10.852Z,16.30
2019-06-08T09:57:39.481Z,16.40
2019-06-08T10:00:17.941Z,16.40
2019-06-08T10:02:39.503Z,16.30
2019-06-08T10:05:08.297Z,16.40
2019-06-08T10:07:38.866Z,16.50
2019-06-08T10:10:09.730Z,16.00
2019-06-08T10:12:40.928Z,16.10
2019-06-08T10:15:08.745Z,16.30
2019-06-08T10:17:37.744Z,16.30
2019-06-08T10:20:09.810Z,16.50
2019-06-08T10:22:36.853Z,16.10
2019-06-08T10:25:11.013Z,16.40
2019-06-08T10:27:38.846Z,17.20
2019-06-08T10:30:10.063Z,17.40
2019-06-08T10:32:38.976Z,17.20
2019-06-08T10:35:10.315Z,17.50
2019-06-08T10:37:38.463Z,17.40
2019-06-08T10:40:07.887Z,17.70
2019-06-08T10:42:39.846Z,17.80
2019-06-08T10:45:12.149Z,18.00
2019-06-08T10:47:38.335Z,17.80
2019-06-08T10:50:14.915Z,18.00
2019-06-08T10:52:39.380Z,17.90
2019-06-08T10:55:10.355Z,18.30
2019-06-08T10:57:39.507Z,18.20
2019-06-08T11:00:20.175Z,18.00
2019-06-08T11:02:42.929Z,17.40
2019-06-08T11:05:13.942Z,17.80
2019-06-08T11:07:42.077Z,18.30
2019-06-08T11:10:12.390Z,18.50
2019-06-08T11:12:40.961Z,17.80
2019-06-08T11:15:11.770Z,17.10
2019-06-08T11:17:40.065Z,16.80
2019-06-08T11:20:13.114Z,17.20
2019-06-08T11:22:40.021Z,17.70
2019-06-08T11:25:15.292Z,17.50
2019-06-08T11:27:38.914Z,18.00
2019-06-08T11:30:14.264Z,17.40
2019-06-08T11:32:38.676Z,17.10
2019-06-08T11:35:10.657Z,16.80
2019-06-08T11:37:43.956Z,16.90
2019-06-08T11:40:13.163Z,16.90
2019-06-08T11:42:41.799Z,17.00
2019-06-08T11:45:13.224Z,16.80
2019-06-08T11:47:41.951Z,16.40
2019-06-08T11:50:13.091Z,16.30
2019-06-08T11:52:41.456Z,16.50
2019-06-08T11:55:13.104Z,16.80
2019-06-08T11:57:43.320Z,17.40
2019-06-08T12:00:23.695Z,18.10
2019-06-08T12:02:45.094Z,17.60
2019-06-08T12:05:14.296Z,17.80
2019-06-08T12:07:42.833Z,18.50
2019-06-08T12:10:12.701Z,17.80
2019-06-08T12:12:41.537Z,18.60
2019-06-08T12:15:12.976Z,19.40
2019-06-08T12:17:40.280Z,18.40
2019-06-08T12:20:13.976Z,18.80
2019-06-08T12:22:40.197Z,18.10
2019-06-08T12:25:10.316Z,18.10
2019-06-08T12:27:40.103Z,17.70
2019-06-08T12:30:16.676Z,17.50
2019-06-08T12:32:39.225Z,17.60
2019-06-08T12:35:10.680Z,20.20
2019-06-08T12:37:38.800Z,20.30
2019-06-08T12:40:11.707Z,19.20
2019-06-08T12:42:38.253Z,18.40
2019-06-08T12:45:09.217Z,18.60
2019-06-08T12:47:38.286Z,18.00
2019-06-08T12:50:09.045Z,21.00
2019-06-08T12:52:39.115Z,21.00
2019-06-08T12:55:15.896Z,20.10
2019-06-08T12:57:38.677Z,19.20
2019-06-08T13:00:09.760Z,18.00
2019-06-08T13:02:38.548Z,18.00
2019-06-08T13:05:10.658Z,18.10
2019-06-08T13:07:38.541Z,18.10
2019-06-08T13:10:08.698Z,17.60
2019-06-08T13:12:40.520Z,17.50
2019-06-08T13:15:10.045Z,17.40
2019-06-08T13:17:38.757Z,19.20
2019-06-08T13:20:10.602Z,20.30
2019-06-08T13:22:39.201Z,20.70
2019-06-08T13:25:21.066Z,20.70
2019-06-08T13:27:38.029Z,20.60
2019-06-08T13:30:07.493Z,20.40
2019-06-08T13:32:38.270Z,19.10
2019-06-08T13:35:08.215Z,18.60
2019-06-08T13:37:38.897Z,18.60
2019-06-08T13:40:08.212Z,21.10
2019-06-08T13:42:38.299Z,20.70
2019-06-08T13:45:08.041Z,21.50
2019-06-08T13:47:40.929Z,20.70
2019-06-08T13:50:08.315Z,20.40
2019-06-08T13:52:38.426Z,22.00
2019-06-08T13:55:08.393Z,20.70
2019-06-08T13:57:37.933Z,20.70
2019-06-08T14:00:09.083Z,21.80
2019-06-08T14:02:39.668Z,19.40
2019-06-08T14:05:08.947Z,18.50
2019-06-08T14:07:38.150Z,17.80
2019-06-08T14:10:07.893Z,18.70
2019-06-08T14:12:38.390Z,17.80
2019-06-08T14:15:08.629Z,20.30
2019-06-08T14:17:37.863Z,20.70
2019-06-08T14:20:08.052Z,20.30
2019-06-08T14:22:38.848Z,21.30
2019-06-08T14:25:10.509Z,20.90
2019-06-08T14:27:37.631Z,19.80
2019-06-08T14:30:08.343Z,20.40
2019-06-08T14:32:38.165Z,19.00
2019-06-08T14:35:08.810Z,18.90
2019-06-08T14:37:38.094Z,18.70
2019-06-08T14:40:08.316Z,18.90
2019-06-08T14:42:38.378Z,18.60
2019-06-08T14:45:10.937Z,18.80
2019-06-08T14:47:39.692Z,19.00
2019-06-08T14:50:09.165Z,18.80
2019-06-08T14:52:38.237Z,18.80
2019-06-08T14:55:08.107Z,18.20
2019-06-08T14:57:37.566Z,18.30
2019-06-08T15:00:09.633Z,18.50
2019-06-08T15:02:38.032Z,18.00
2019-06-08T15:05:07.873Z,17.70
2019-06-08T15:07:38.697Z,18.30
2019-06-08T15:10:09.825Z,18.10
2019-06-08T15:12:38.413Z,18.00
2019-06-08T15:15:10.770Z,18.30
2019-06-08T15:17:37.960Z,18.60
2019-06-08T15:20:08.859Z,18.40
2019-06-08T15:22:38.878Z,18.70
2019-06-08T15:25:10.805Z,18.60
2019-06-08T15:27:38.901Z,18.50
2019-06-08T15:30:08.123Z,18.60
2019-06-08T15:32:38.734Z,18.80
2019-06-08T15:35:08.095Z,18.30
2019-06-08T15:37:38.083Z,18.60
2019-06-08T15:40:07.941Z,18.60
2019-06-08T15:42:36.404Z,18.60
2019-06-08T15:45:08.340Z,18.50
2019-06-08T15:47:40.566Z,18.70
2019-06-08T15:50:08.847Z,17.80
2019-06-08T15:52:38.025Z,17.90
2019-06-08T15:55:08.482Z,17.90
2019-06-08T15:57:40.792Z,18.10
2019-06-08T16:00:10.191Z,17.90
2019-06-08T16:02:39.178Z,17.70
2019-06-08T16:05:08.737Z,17.50
2019-06-08T16:07:37.181Z,17.50
2019-06-08T16:10:06.975Z,17.60
2019-06-08T16:12:35.425Z,17.70
2019-06-08T16:15:06.221Z,17.80
2019-06-08T16:17:35.527Z,17.30
2019-06-08T16:20:04.778Z,17.40
2019-06-08T16:22:33.869Z,17.90
2019-06-08T16:25:02.531Z,17.40
2019-06-08T16:27:32.131Z,17.20
2019-06-08T16:30:08.727Z,17.10
2019-06-08T16:32:31.503Z,17.00
2019-06-08T16:35:00.480Z,16.70
2019-06-08T16:37:29.519Z,16.80
2019-06-08T16:39:58.230Z,16.60
2019-06-08T16:42:27.864Z,16.60
2019-06-08T16:44:56.814Z,16.40
2019-06-08T16:47:25.462Z,16.50
2019-06-08T16:49:54.056Z,16.50
2019-06-08T16:52:22.551Z,16.60
2019-06-08T16:54:51.047Z,16.40
2019-06-08T16:57:19.558Z,16.30
2019-06-08T16:59:48.016Z,16.50
2019-06-08T17:02:17.125Z,16.40
2019-06-08T17:04:45.797Z,16.40
2019-06-08T17:07:14.298Z,16.40
2019-06-08T17:09:43.022Z,16.30
2019-06-08T17:12:11.760Z,17.10
2019-06-08T17:14:40.818Z,16.20
2019-06-08T17:17:09.475Z,16.00
2019-06-08T17:19:38.426Z,16.00
2019-06-08T17:22:07.096Z,16.40
2019-06-08T17:24:36.679Z,16.40
2019-06-08T17:27:05.273Z,16.20
2019-06-08T17:29:34.911Z,15.80
2019-06-08T17:32:04.217Z,15.90
2019-06-08T17:34:34.334Z,16.00
2019-06-08T17:37:02.844Z,16.00
2019-06-08T17:39:31.733Z,16.00
2019-06-08T17:42:00.224Z,15.90
2019-06-08T17:44:28.664Z,15.90
2019-06-08T17:46:57.116Z,15.80
2019-06-08T17:49:25.745Z,16.00
2019-06-08T17:51:54.297Z,16.00
2019-06-08T17:54:22.723Z,15.80
2019-06-08T17:56:51.256Z,15.80
2019-06-08T17:59:19.688Z,15.70
2019-06-08T18:01:48.441Z,15.60
2019-06-08T18:04:17.517Z,15.70
2019-06-08T18:06:47.336Z,15.60
2019-06-08T18:09:17.799Z,15.60
2019-06-08T18:11:47.973Z,15.70
2019-06-08T18:14:18.096Z,15.60
2019-06-08T18:16:47.944Z,15.50
2019-06-08T18:19:30.389Z,15.00
2019-06-08T18:22:04.104Z,14.50
2019-06-08T18:24:29.537Z,14.50
2019-06-08T18:26:58.899Z,14.80
2019-06-08T18:29:27.779Z,14.80
2019-06-08T18:31:58.107Z,14.60
2019-06-08T18:34:28.493Z,14.60
2019-06-08T18:36:57.876Z,14.60
2019-06-08T18:39:28.493Z,14.60
2019-06-08T18:41:58.818Z,14.50
2019-06-08T18:44:28.477Z,14.40
2019-06-08T18:46:57.807Z,14.40
2019-06-08T18:49:28.958Z,14.40
2019-06-08T18:51:58.237Z,14.30
2019-06-08T18:54:27.846Z,14.20
2019-06-08T18:56:56.865Z,14.10
2019-06-08T18:59:25.487Z,14.00
2019-06-08T19:01:53.929Z,13.80
2019-06-08T19:04:22.460Z,13.80
2019-06-08T19:06:51.076Z,13.70
2019-06-08T19:09:19.605Z,13.60
2019-06-08T19:11:49.005Z,13.50
2019-06-08T19:14:20.783Z,13.50
2019-06-08T19:16:54.170Z,13.40
2019-06-08T19:19:19.141Z,13.40
2019-06-08T19:21:50.209Z,13.30
2019-06-08T19:24:18.429Z,13.30
2019-06-08T19:26:47.785Z,13.30
2019-06-08T19:29:19.680Z,13.40
2019-06-08T19:31:51.201Z,13.50
2019-06-08T19:34:18.477Z,13.50
2019-06-08T19:36:52.211Z,13.50
2019-06-08T19:39:17.812Z,13.50
2019-06-08T19:41:49.214Z,13.40
2019-06-08T19:44:18.318Z,13.40
2019-06-08T19:46:47.536Z,13.30
2019-06-08T19:49:17.362Z,13.30
2019-06-08T19:51:49.367Z,13.40
2019-06-08T19:54:18.245Z,13.30
2019-06-08T19:56:52.494Z,13.40
2019-06-08T19:59:17.920Z,13.30
2019-06-08T20:01:51.353Z,13.30
2019-06-08T20:04:18.189Z,13.30
2019-06-08T20:06:48.006Z,13.20
2019-06-08T20:09:17.452Z,13.20
2019-06-08T20:11:49.416Z,13.20
2019-06-08T20:14:16.337Z,13.10
2019-06-08T20:16:44.905Z,13.10
2019-06-08T20:19:13.428Z,13.00
2019-06-08T20:21:42.919Z,13.00
2019-06-08T20:24:11.509Z,13.10
2019-06-08T20:26:40.012Z,12.90
2019-06-08T20:29:13.505Z,12.90
2019-06-08T20:31:39.104Z,13.00
2019-06-08T20:34:07.662Z,13.00
2019-06-08T20:36:37.556Z,12.90
2019-06-08T20:39:08.185Z,13.00
2019-06-08T20:41:37.742Z,12.90
2019-06-08T20:44:08.493Z,12.70
2019-06-08T20:46:37.847Z,12.70
2019-06-08T20:49:08.328Z,12.60
2019-06-08T20:51:37.435Z,12.40
2019-06-08T20:54:07.898Z,12.40
2019-06-08T20:56:37.223Z,12.30
2019-06-08T20:59:08.039Z,12.20
2019-06-08T21:01:36.440Z,12.10
2019-06-08T21:04:07.498Z,12.00
2019-06-08T21:06:35.314Z,12.00
2019-06-08T21:09:07.764Z,11.90
2019-06-08T21:11:38.042Z,11.90
2019-06-08T21:14:06.717Z,11.90
2019-06-08T21:16:35.269Z,11.90
2019-06-08T21:19:03.757Z,11.90
2019-06-08T21:21:32.215Z,12.00
2019-06-08T21:24:01.406Z,11.90
2019-06-08T21:26:30.098Z,11.90
2019-06-08T21:29:00.451Z,11.90
2019-06-08T21:31:28.740Z,11.90
2019-06-08T21:34:00.772Z,11.90
2019-06-08T21:36:27.482Z,11.80
2019-06-08T21:39:01.932Z,11.70
2019-06-08T21:41:27.900Z,11.60
2019-06-08T21:44:00.671Z,11.60
2019-06-08T21:46:27.512Z,11.60
2019-06-08T21:48:58.466Z,11.70
2019-06-08T21:51:26.407Z,11.70
2019-06-08T21:53:56.822Z,11.60
2019-06-08T21:56:27.508Z,11.50
2019-06-08T21:58:57.240Z,11.50
2019-06-08T22:01:28.544Z,11.30
2019-06-08T22:03:58.946Z,11.40
2019-06-08T22:06:27.173Z,11.30
2019-06-08T22:08:58.461Z,11.30
2019-06-08T22:11:25.793Z,11.20
2019-06-08T22:13:54.680Z,11.20
2019-06-08T22:16:23.266Z,11.10
2019-06-08T22:18:52.986Z,11.10
2019-06-08T22:21:21.709Z,11.00
2019-06-08T22:23:51.823Z,10.90
2019-06-08T22:26:20.373Z,10.80
2019-06-08T22:28:48.839Z,10.80
2019-06-08T22:31:18.001Z,10.80
2019-06-08T22:33:48.339Z,10.80
2019-06-08T22:36:16.960Z,10.80
2019-06-08T22:38:47.630Z,10.80
2019-06-08T22:41:17.401Z,10.80
2019-06-08T22:43:47.995Z,10.70
2019-06-08T22:46:17.814Z,10.70
2019-06-08T22:48:47.820Z,10.70
2019-06-08T22:51:18.258Z,10.70
2019-06-08T22:53:47.821Z,10.80
2019-06-08T22:56:18.308Z,10.90
2019-06-08T22:58:48.007Z,10.80
2019-06-08T23:01:18.440Z,10.90
2019-06-08T23:03:47.630Z,10.90
2019-06-08T23:06:17.719Z,11.00
2019-06-08T23:08:48.066Z,10.90
2019-06-08T23:11:18.010Z,10.80
2019-06-08T23:13:47.186Z,10.90
2019-06-08T23:16:18.012Z,10.70
2019-06-08T23:18:47.835Z,10.70
2019-06-08T23:21:18.117Z,10.80
2019-06-08T23:23:47.739Z,10.70
2019-06-08T23:26:18.316Z,10.70
2019-06-08T23:28:47.205Z,10.50
2019-06-08T23:31:24.182Z,10.40
2019-06-08T23:33:48.197Z,10.30
2019-06-08T23:36:45.646Z,10.20
2019-06-08T23:38:48.143Z,10.20
2019-06-08T23:41:17.706Z,10.40
2019-06-08T23:43:48.049Z,10.30
2019-06-08T23:46:18.146Z,10.30
2019-06-08T23:48:48.430Z,10.30
2019-06-08T23:51:18.043Z,10.50
2019-06-08T23:53:47.801Z,10.60
2019-06-08T23:56:18.347Z,10.50
2019-06-08T23:58:48.183Z,10.40
